Time;durP1;ratioP1;P1;durP2;ratioP2;P2;SDS_P1;SDS_P2;PMS_P1;PMS_P2;Temp;Humidity;BMP_temperature;BMP_pressure;BME280_temperature;BME280_humidity;BME280_pressure;Samples;Min_cycle;Max_cycle;Signal;HPM_P1;HPM_P2
2022/07/26 00:00:53;;;;;;;6.60;2.45;;;;;;;22.11;54.99;99532.09;12252099;19;20013;-87
2022/07/26 00:05:24;;;;;;;8.57;2.50;;;;;;;21.97;55.67;99543.50;12210030;19;20509;-88
2022/07/26 00:09:31;;;;;;;3.63;2.10;;;;;;;21.95;56.49;99548.59;12181057;19;20082;-86
2022/07/26 00:13:34;;;;;;;5.22;2.60;;;;;;;21.91;56.64;99542.03;12212699;19;20010;-86
2022/07/26 00:17:42;;;;;;;5.65;2.47;;;;;;;21.84;57.48;99528.50;12224025;19;20086;-85
2022/07/26 00:22:32;;;;;;;6.13;2.20;;;;;;;21.73;57.86;99530.81;12202768;19;20489;-87
2022/07/26 00:27:08;;;;;;;;;;;;;;;;;;;;;
2022/07/26 00:31:31;;;;;;;8.55;2.60;;;;;;;21.53;58.61;99540.72;12198993;19;20010;-88
2022/07/26 00:35:42;;;;;;;7.25;2.60;;;;;;;21.42;58.89;99549.78;12223646;19;20078;-87
2022/07/26 00:39:43;;;;;;;8.38;2.90;;;;;;;21.27;59.63;99551.91;12197642;19;21425;-87
2022/07/26 00:44:04;;;;;;;7.25;2.55;;;;;;;21.14;60.18;99559.28;12217933;19;20366;-87
2022/07/26 00:48:07;;;;;;;5.70;2.67;;;;;;;21.06;60.27;99570.47;12222069;19;20011;-86
2022/07/26 00:52:18;;;;;;;6.93;2.53;;;;;;;20.97;61.01;99575.22;12202970;19;20034;-89
2022/07/26 00:56:21;;;;;;;6.68;2.65;;;;;;;20.91;60.91;99580.13;12223032;19;20104;-89
2022/07/26 01:00:50;;;;;;;4.63;2.25;;;;;;;20.84;61.13;99591.81;12198912;19;20374;-88
2022/07/26 01:05:43;;;;;;;5.18;2.90;;;;;;;20.78;61.21;99589.50;12197762;19;20010;-88
2022/07/26 01:16:42;;;;;;;;;;;;;;;;;;;;;
2022/07/26 01:22:37;;;;;;;8.95;2.90;;;;;;;20.61;61.92;99595.81;12174567;19;20004;-88
2022/07/26 01:27:06;;;;;;;6.53;2.35;;;;;;;20.58;61.76;99607.66;12217523;19;20021;-89
2022/07/26 01:31:22;;;;;;;7.20;2.35;;;;;;;20.52;62.24;99594.94;12231704;19;20032;-89
2022/07/26 01:35:33;;;;;;;7.47;2.33;;;;;;;20.44;62.35;99594.56;12228403;19;20014;-87
2022/07/26 01:39:38;;;;;;;10.00;2.65;;;;;;;20.35;62.95;99599.28;12195448;19;20508;-88
2022/07/26 01:43:45;;;;;;;6.47;2.65;;;;;;;20.30;62.91;99596.63;12217466;19;20183;-86
2022/07/26 01:47:49;;;;;;;7.47;2.30;;;;;;;20.23;62.97;99594.28;12220451;19;20006;-89
2022/07/26 01:51:50;;;;;;;5.68;2.35;;;;;;;20.19;63.29;99598.03;12223768;19;20595;-88
2022/07/26 01:55:52;;;;;;;7.75;2.35;;;;;;;20.11;63.92;99596.00;12227913;19;20010;-86
2022/07/26 01:59:55;;;;;;;6.67;2.47;;;;;;;20.03;63.71;99597.59;12220036;19;20034;-85
2022/07/26 02:03:57;;;;;;;6.60;2.30;;;;;;;19.95;64.88;99598.34;12193974;19;20006;-87
2022/07/26 02:08:00;;;;;;;4.47;2.45;;;;;;;19.94;64.71;99596.72;12217873;19;20010;-87
2022/07/26 02:12:06;;;;;;;4.72;2.33;;;;;;;19.89;64.91;99597.66;12215381;19;20010;-88
2022/07/26 02:16:12;;;;;;;4.25;2.13;;;;;;;19.86;65.07;99595.50;12199068;19;20030;-87
2022/07/26 02:20:15;;;;;;;8.55;2.30;;;;;;;19.83;64.55;99593.31;12218399;19;20025;-87
2022/07/26 02:24:59;;;;;;;6.93;2.20;;;;;;;19.82;65.19;99602.03;12212230;19;20010;-88
2022/07/26 06:42:07;;;;;;;6.13;1.45;;;;;;;20.36;60.65;99710.06;12221716;19;20077;-83
2022/07/26 06:46:09;;;;;;;2.33;1.02;;;;;;;20.46;60.57;99708.97;12213040;19;20011;-83
2022/07/26 06:50:11;;;;;;;4.82;1.20;;;;;;;20.52;60.43;99702.16;12211546;19;20006;-84
2022/07/26 06:54:15;;;;;;;5.82;1.38;;;;;;;20.62;60.29;99717.88;12217522;19;20023;-85
2022/07/26 06:58:17;;;;;;;2.38;1.10;;;;;;;20.64;60.19;99704.38;12193339;19;19999;-83
2022/07/26 07:02:19;;;;;;;3.60;1.20;;;;;;;20.77;59.77;99708.25;12216732;19;20799;-82
2022/07/26 07:06:21;;;;;;;3.60;1.20;;;;;;;21.00;59.42;99701.47;12219436;19;20017;-83
2022/07/26 07:10:23;;;;;;;3.93;1.40;;;;;;;21.20;58.57;99700.03;12192926;19;20280;-83
2022/07/26 07:14:25;;;;;;;6.03;1.83;;;;;;;21.35;58.76;99702.41;12206505;19;20684;-83
2022/07/26 07:18:29;;;;;;;3.33;1.30;;;;;;;21.49;57.90;99707.94;12197422;19;20094;-86
2022/07/26 07:22:31;;;;;;;3.85;1.23;;;;;;;21.73;57.36;99701.88;12220405;19;20456;-83
2022/07/26 07:26:34;;;;;;;5.15;1.27;;;;;;;21.94;56.85;99695.66;12214013;19;20010;-85
2022/07/26 07:30:37;;;;;;;3.53;1.23;;;;;;;22.11;55.83;99706.91;12207389;19;20038;-85
2022/07/26 07:34:39;;;;;;;4.18;1.30;;;;;;;22.07;55.14;99694.66;12226143;19;20034;-84
2022/07/26 07:38:58;;;;;;;2.38;1.15;;;;;;;22.10;54.70;99696.84;12223040;19;20398;-86
2022/07/26 07:43:06;;;;;;;2.35;1.35;;;;;;;22.15;54.83;99696.66;12206280;19;20019;-84
2022/07/26 07:47:08;;;;;;;4.07;1.27;;;;;;;21.92;55.22;99709.16;12229771;19;20072;-83
2022/07/26 07:51:11;;;;;;;4.55;1.00;;;;;;;21.88;55.86;99703.41;12228050;19;20341;-84
2022/07/26 07:55:14;;;;;;;7.63;1.60;;;;;;;22.02;55.49;99694.84;12211553;19;20017;-84
2022/07/26 07:59:41;;;;;;;4.07;1.75;;;;;;;22.11;54.53;99689.22;12229452;19;20059;-84
2022/07/26 08:03:43;;;;;;;3.28;1.38;;;;;;;22.28;53.66;99690.09;12207750;19;20010;-86
2022/07/26 08:08:04;;;;;;;4.13;1.60;;;;;;;22.79;51.90;99700.75;12225333;19;20035;-85
2022/07/26 08:12:09;;;;;;;4.20;1.48;;;;;;;23.25;51.03;99693.50;12230965;19;20002;-83
2022/07/26 08:16:12;;;;;;;2.58;1.05;;;;;;;23.54;51.02;99704.78;12209278;19;20022;-83
2022/07/26 08:20:14;;;;;;;3.77;1.47;;;;;;;23.22;50.83;99711.06;12232929;19;20279;-84
2022/07/26 08:24:16;;;;;;;5.13;1.60;;;;;;;23.04;50.18;99711.09;12226366;19;20003;-84
2022/07/26 08:28:19;;;;;;;2.97;1.23;;;;;;;23.46;49.69;99716.06;12206793;19;20039;-84
2022/07/26 08:32:41;;;;;;;3.55;1.45;;;;;;;23.47;49.79;99718.56;12230652;19;20007;-85
2022/07/26 08:36:44;;;;;;;3.08;1.30;;;;;;;23.98;48.73;99715.78;12197126;19;20010;-84
2022/07/26 08:41:07;;;;;;;5.82;1.10;;;;;;;23.93;49.37;99716.00;12222222;19;20017;-88
2022/07/26 08:45:10;;;;;;;5.00;1.33;;;;;;;24.13;48.94;99728.44;12221967;19;20079;-86
2022/07/26 08:49:13;;;;;;;2.50;1.13;;;;;;;24.33;47.45;99724.78;12202169;19;20006;-84
2022/07/26 08:53:18;;;;;;;4.10;1.65;;;;;;;24.44;47.34;99723.22;12223028;19;20010;-84
2022/07/26 08:57:19;;;;;;;3.75;1.15;;;;;;;25.13;46.68;99726.50;12225710;19;20031;-88
2022/07/26 09:01:23;;;;;;;4.88;1.58;;;;;;;25.05;46.08;99733.06;12208735;19;20342;-85
2022/07/26 09:05:35;;;;;;;3.72;1.55;;;;;;;24.81;45.77;99736.63;12230462;19;20006;-83
2022/07/26 09:09:57;;;;;;;5.07;1.30;;;;;;;25.41;44.17;99740.78;12199633;19;20006;-89
2022/07/26 09:14:01;;;;;;;3.75;1.20;;;;;;;25.44;44.15;99742.91;12219930;19;20014;-87
2022/07/26 09:18:03;;;;;;;8.18;1.50;;;;;;;25.34;44.42;99744.16;12226026;19;20019;-85
2022/07/26 09:22:11;;;;;;;4.25;1.30;;;;;;;25.30;44.83;99748.06;12205920;19;20010;-87
2022/07/26 09:26:19;;;;;;;1.42;1.05;;;;;;;25.52;44.53;99738.31;12229446;19;20031;-83
2022/07/26 09:30:20;;;;;;;2.72;1.40;;;;;;;26.01;43.25;99739.16;12223039;19;20015;-84
2022/07/26 09:34:24;;;;;;;1.88;1.20;;;;;;;25.86;43.03;99740.69;12206178;19;20479;-86
2022/07/26 09:38:44;;;;;;;3.08;1.20;;;;;;;26.03;42.83;99736.81;12229665;19;20014;-84
2022/07/26 09:42:58;;;;;;;3.20;1.13;;;;;;;26.34;41.89;99730.47;12203215;19;20014;-86
2022/07/26 09:47:00;;;;;;;2.30;1.13;;;;;;;26.30;41.75;99740.84;12222256;19;20484;-85
2022/07/26 09:51:02;;;;;;;3.07;1.20;;;;;;;26.01;41.57;99744.78;12254791;19;20047;-91
2022/07/26 09:55:07;;;;;;;6.47;1.75;;;;;;;25.79;42.02;99742.44;12233203;19;20015;-85
2022/07/26 09:59:09;;;;;;;4.03;1.20;;;;;;;26.05;42.54;99731.59;12227215;19;20014;-84
2022/07/26 10:03:11;;;;;;;2.65;1.15;;;;;;;27.02;40.74;99734.47;12226155;19;19998;-88
2022/07/26 10:07:13;;;;;;;;;;;;;;;27.28;38.89;99728.31;12207218;19;20010;-86
2022/07/26 10:11:19;;;;;;;2.60;0.90;;;;;;;27.47;39.28;99733.22;12225782;19;19911;-85
2022/07/26 10:15:35;;;;;;;4.53;1.00;;;;;;;27.30;38.56;99736.44;12227967;19;20007;-85
2022/07/26 10:19:38;;;;;;;3.65;1.20;;;;;;;26.50;38.87;99736.25;12200370;19;20015;-85
2022/07/26 10:23:57;;;;;;;3.28;1.20;;;;;;;26.00;40.35;99742.31;12221748;19;20006;-85
2022/07/26 10:28:00;;;;;;;2.28;0.70;;;;;;;26.17;39.88;99736.41;12199326;19;20464;-84
2022/07/26 10:32:14;;;;;;;3.50;0.95;;;;;;;26.65;39.55;99728.16;12218926;19;20003;-85
2022/07/26 10:36:24;;;;;;;3.17;1.10;;;;;;;27.51;38.03;99725.66;12216458;19;20038;-85
2022/07/26 10:40:31;;;;;;;1.93;1.10;;;;;;;27.98;37.40;99721.97;12197784;19;20019;-84
2022/07/26 10:44:34;;;;;;;2.22;1.13;;;;;;;27.58;37.60;99731.50;12213301;19;20385;-83
2022/07/26 10:49:06;;;;;;;2.80;1.10;;;;;;;27.06;38.47;99729.72;12196090;19;20647;-87
2022/07/26 10:53:15;;;;;;;2.40;1.00;;;;;;;26.52;38.62;99735.88;12214999;19;20013;-84
2022/07/26 10:57:18;;;;;;;4.97;1.10;;;;;;;26.12;39.61;99737.50;12217524;19;20017;-87
2022/07/26 11:01:20;;;;;;;8.60;1.23;;;;;;;25.82;40.14;99734.13;12195625;19;20014;-86
2022/07/26 11:05:28;;;;;;;2.35;1.02;;;;;;;26.02;40.39;99729.50;12223970;19;20010;-86
2022/07/26 11:09:53;;;;;;;3.08;1.00;;;;;;;26.13;39.54;99729.84;12226562;19;20130;-87
2022/07/26 11:14:11;;;;;;;3.15;1.20;;;;;;;26.07;39.32;99725.63;12192896;19;20014;-88
2022/07/26 11:18:27;;;;;;;3.10;1.15;;;;;;;25.94;39.99;99724.81;12216309;19;20014;-85
2022/07/26 11:22:34;;;;;;;4.72;1.05;;;;;;;25.90;39.75;99730.34;12191971;19;20006;-86
2022/07/26 11:26:42;;;;;;;3.53;1.00;;;;;;;25.88;40.34;99718.59;12214241;19;20014;-85
2022/07/26 11:31:00;;;;;;;2.38;1.02;;;;;;;26.25;39.92;99721.34;12197880;19;20027;-87
2022/07/26 11:35:05;;;;;;;3.28;1.23;;;;;;;27.45;38.63;99715.78;12221044;19;20014;-85
2022/07/26 11:39:12;;;;;;;2.55;0.88;;;;;;;28.69;35.92;99702.06;12217733;19;20023;-85
2022/07/26 11:43:16;;;;;;;2.28;1.00;;;;;;;29.59;34.22;99687.47;12195598;19;20073;-85
2022/07/26 11:47:33;;;;;;;2.17;0.93;;;;;;;30.04;32.95;99688.56;12222118;19;20543;-88
2022/07/26 11:51:35;;;;;;;8.30;1.30;;;;;;;29.20;34.18;99701.81;12220592;19;20364;-87
2022/07/26 11:55:37;;;;;;;3.05;0.88;;;;;;;28.51;34.96;99704.53;12192634;19;20015;-86
2022/07/26 11:59:47;;;;;;;2.45;1.00;;;;;;;27.71;35.78;99701.06;12219214;19;20519;-85
2022/07/26 12:03:57;;;;;;;2.33;1.08;;;;;;;28.64;35.80;99691.81;12192135;19;21376;-85
2022/07/26 12:08:03;;;;;;;2.97;0.88;;;;;;;29.45;32.67;99691.72;12215146;19;20006;-84
2022/07/26 12:12:17;;;;;;;3.58;0.98;;;;;;;29.21;33.48;99697.78;12215262;19;20034;-86
2022/07/26 12:16:35;;;;;;;2.33;0.80;;;;;;;28.57;33.24;99703.84;12202510;19;20011;-86
2022/07/26 12:20:58;;;;;;;2.70;1.13;;;;;;;27.80;34.87;99698.06;12220852;19;20010;-92
2022/07/26 12:25:06;;;;;;;2.00;0.90;;;;;;;27.32;35.87;99706.59;12198117;19;20030;-85
2022/07/26 12:29:23;;;;;;;2.78;0.93;;;;;;;27.12;35.83;99696.31;12224308;19;20007;-86
2022/07/26 12:33:25;;;;;;;2.70;0.95;;;;;;;27.11;35.85;99704.00;12218466;19;20010;-87
2022/07/26 12:37:29;;;;;;;3.65;1.48;;;;;;;27.02;36.31;99698.50;12192966;19;20087;-86
2022/07/26 12:41:40;;;;;;;2.08;0.95;;;;;;;26.87;36.39;99693.66;12213149;19;20038;-88
2022/07/26 12:45:43;;;;;;;1.48;0.75;;;;;;;26.72;36.55;99686.78;12208067;19;20021;-84
2022/07/26 12:49:47;;;;;;;6.75;1.15;;;;;;;26.77;36.58;99689.38;12202489;19;20600;-85
2022/07/26 12:53:49;;;;;;;2.50;0.98;;;;;;;26.72;37.26;99678.31;12219569;19;20863;-84
2022/07/26 12:57:52;;;;;;;2.30;0.90;;;;;;;26.69;37.13;99673.38;12193219;19;20375;-83
2022/07/26 13:01:57;;;;;;;9.57;6.00;;;;;;;26.58;37.19;99666.59;12220438;19;20592;-84
2022/07/26 13:06:03;;;;;;;3.50;1.23;;;;;;;26.67;36.94;99660.78;12218070;19;20014;-87
2022/07/26 13:10:30;;;;;;;1.55;0.93;;;;;;;26.75;36.43;99654.16;12216728;19;20009;-87
2022/07/26 13:14:52;;;;;;;1.80;1.00;;;;;;;28.32;34.84;99646.63;12223918;19;20487;-88
2022/07/26 13:19:16;;;;;;;1.15;0.70;;;;;;;29.05;33.09;99650.50;12216156;19;20016;-87
2022/07/26 13:23:19;;;;;;;2.03;0.95;;;;;;;28.60;33.00;99649.22;12209799;19;20338;-87
2022/07/26 13:27:27;;;;;;;1.70;0.80;;;;;;;28.33;34.31;99653.13;12213064;19;20401;-87
2022/07/26 13:31:38;;;;;;;5.38;1.05;;;;;;;27.97;33.64;99655.19;12246577;19;20006;-89
2022/07/26 13:35:41;;;;;;;4.38;0.93;;;;;;;27.69;34.39;99647.66;12260198;19;20011;-88
2022/07/26 13:39:43;;;;;;;2.80;1.20;;;;;;;27.48;35.48;99652.81;12225462;19;20561;-86
2022/07/26 13:43:44;;;;;;;2.92;1.20;;;;;;;27.26;36.18;99659.97;12193550;19;20350;-86
2022/07/26 13:47:47;;;;;;;2.57;1.30;;;;;;;27.13;36.86;99664.88;12221953;19;20027;-87
2022/07/26 13:51:58;;;;;;;1.48;1.20;;;;;;;27.26;36.67;99654.31;12195644;19;20015;-86
2022/07/26 13:56:01;;;;;;;1.98;1.17;;;;;;;28.62;34.91;99649.69;12209051;19;20031;-86
2022/07/26 14:00:04;;;;;;;5.47;1.15;;;;;;;28.71;34.62;99645.81;12220726;19;20473;-85
2022/07/26 14:04:08;;;;;;;6.10;1.60;;;;;;;28.32;34.89;99652.31;12196075;19;20612;-89
2022/07/26 14:08:10;;;;;;;2.97;1.40;;;;;;;27.94;35.60;99650.28;12211259;19;20015;-85
2022/07/26 14:12:25;;;;;;;;;;;;;;;27.42;36.19;99666.41;12207059;19;20014;-89
2022/07/26 14:16:27;;;;;;;3.83;1.50;;;;;;;27.00;37.05;99649.97;12189492;19;19922;-88
2022/07/26 14:20:28;;;;;;;4.22;1.30;;;;;;;26.95;36.91;99661.56;12209805;19;20373;-89
2022/07/26 14:24:31;;;;;;;3.83;1.47;;;;;;;27.03;37.36;99659.75;12199389;19;20011;-86
2022/07/26 14:28:34;;;;;;;1.70;1.48;;;;;;;27.30;36.81;99660.03;12189185;19;20212;-86
2022/07/26 14:32:36;;;;;;;2.72;1.70;;;;;;;27.36;36.98;99655.75;12214751;19;19999;-85
2022/07/26 14:36:41;;;;;;;2.92;1.83;;;;;;;28.13;36.38;99655.94;12204899;19;20007;-86
2022/07/26 14:40:43;;;;;;;2.92;1.73;;;;;;;28.17;35.41;99650.38;12192346;19;20011;-85
2022/07/26 14:44:45;;;;;;;3.28;1.20;;;;;;;28.16;34.86;99646.69;12205513;19;20010;-86
2022/07/26 14:48:47;;;;;;;2.42;1.67;;;;;;;28.39;35.14;99654.44;12205185;19;20010;-85
2022/07/26 14:52:55;;;;;;;4.95;1.77;;;;;;;29.83;33.78;99649.31;12210019;19;20470;-85
2022/07/26 14:56:57;;;;;;;3.85;1.67;;;;;;;29.78;33.03;99647.63;12212701;19;20021;-84
2022/07/26 15:00:59;;;;;;;3.30;1.63;;;;;;;29.37;33.61;99660.75;12179961;19;20003;-86
2022/07/26 15:05:01;;;;;;;2.33;1.33;;;;;;;29.12;33.30;99648.97;12200999;19;20010;-85
2022/07/26 15:09:04;;;;;;;2.88;1.30;;;;;;;28.82;33.32;99649.63;12208146;19;20460;-86
2022/07/26 15:13:06;;;;;;;5.30;1.30;;;;;;;29.51;33.20;99639.09;12189966;19;20007;-85
2022/07/26 15:17:09;;;;;;;5.63;1.80;;;;;;;30.50;31.47;99631.53;12201862;19;20007;-84
2022/07/26 15:21:13;;;;;;;6.10;1.63;;;;;;;30.93;31.10;99627.13;12205179;19;20671;-85
2022/07/26 15:25:15;;;;;;;3.72;1.55;;;;;;;30.91;30.76;99637.25;12179764;19;20072;-85
2022/07/26 15:29:18;;;;;;;2.25;1.20;;;;;;;30.19;31.37;99637.25;12199069;19;20080;-85
2022/07/26 15:33:19;;;;;;;2.83;1.50;;;;;;;29.83;31.77;99637.94;12206646;19;20086;-85
2022/07/26 15:37:22;;;;;;;2.05;1.10;;;;;;;29.63;32.28;99628.75;12181402;19;20010;-86
2022/07/26 15:41:25;;;;;;;3.30;1.65;;;;;;;29.49;32.53;99630.13;12195466;19;20007;-85
2022/07/26 15:45:26;;;;;;;6.03;1.50;;;;;;;29.45;32.29;99631.31;12207535;19;20473;-87
2022/07/26 15:49:30;;;;;;;3.30;1.70;;;;;;;29.38;32.27;99628.34;12193139;19;20011;-84
2022/07/26 15:53:34;;;;;;;7.25;1.50;;;;;;;29.45;32.10;99620.75;12213556;19;20014;-86
2022/07/26 15:57:36;;;;;;;6.20;1.50;;;;;;;29.33;32.26;99626.66;12208030;19;20016;-84
2022/07/26 16:01:40;;;;;;;2.30;1.45;;;;;;;29.04;33.12;99625.34;12188931;19;20006;-87
2022/07/26 16:05:41;;;;;;;5.28;1.50;;;;;;;28.79;32.64;99620.03;12212088;19;20007;-86
2022/07/26 16:09:43;;;;;;;3.70;1.63;;;;;;;28.49;32.53;99617.03;12215883;19;20021;-88
2022/07/26 16:13:45;;;;;;;4.57;1.48;;;;;;;28.36;32.64;99618.38;12189295;19;20032;-84
2022/07/26 16:17:46;;;;;;;4.83;1.40;;;;;;;28.49;32.03;99614.19;12211258;19;20024;-85
2022/07/26 16:21:48;;;;;;;1.98;1.30;;;;;;;28.40;32.32;99616.41;12220005;19;20626;-85
2022/07/26 16:25:51;;;;;;;2.45;1.35;;;;;;;28.44;32.38;99608.84;12173294;19;20024;-86
2022/07/26 16:29:54;;;;;;;3.58;1.30;;;;;;;28.37;32.40;99598.13;12213059;19;20435;-84
2022/07/26 16:33:57;;;;;;;2.22;1.10;;;;;;;28.33;32.60;99611.44;12184714;19;20412;-84
2022/07/26 16:37:59;;;;;;;2.00;1.27;;;;;;;28.38;32.65;99604.66;12207041;19;20085;-85
2022/07/26 16:42:01;;;;;;;3.25;1.30;;;;;;;28.61;31.75;99601.84;12209674;19;20010;-84
2022/07/26 16:46:07;;;;;;;2.50;1.30;;;;;;;28.74;32.10;99600.50;12212888;19;20006;-85
2022/07/26 16:50:09;;;;;;;3.92;1.33;;;;;;;28.71;31.81;99587.06;12215535;19;20379;-86
2022/07/26 16:54:25;;;;;;;2.20;1.20;;;;;;;28.53;32.14;99580.25;12213220;19;20453;-85
2022/07/26 16:58:27;;;;;;;3.58;1.65;;;;;;;28.55;31.67;99584.34;12188422;19;20011;-83
2022/07/26 17:02:29;;;;;;;4.30;1.77;;;;;;;28.47;32.75;99591.09;12216145;19;20043;-86
2022/07/26 17:06:31;;;;;;;3.55;1.70;;;;;;;28.32;32.79;99594.81;12205364;19;20011;-86
2022/07/26 17:10:34;;;;;;;5.22;1.38;;;;;;;28.18;32.86;99586.84;12183555;19;20034;-86
2022/07/26 17:14:36;;;;;;;3.60;1.52;;;;;;;28.00;33.11;99597.00;12222974;19;20006;-91
2022/07/26 17:18:38;;;;;;;3.15;1.50;;;;;;;27.85;33.32;99595.88;12259761;19;20007;-85
2022/07/26 17:22:40;;;;;;;7.00;1.60;;;;;;;27.60;34.09;99598.91;12199080;19;20027;-86
2022/07/26 17:26:41;;;;;;;5.63;1.50;;;;;;;27.43;34.17;99596.50;12206683;19;20027;-85
2022/07/26 17:30:46;;;;;;;3.05;1.70;;;;;;;27.27;34.40;99591.69;12213957;19;20009;-87
2022/07/26 17:34:48;;;;;;;4.60;1.98;;;;;;;27.30;34.51;99601.44;12194259;19;20550;-84
2022/07/26 17:38:51;;;;;;;4.28;1.65;;;;;;;27.18;34.49;99593.88;12215249;19;20011;-86
2022/07/26 17:42:55;;;;;;;3.67;1.70;;;;;;;26.93;34.71;99603.75;12186658;19;20500;-84
2022/07/26 17:46:58;;;;;;;5.68;1.60;;;;;;;26.78;35.03;99596.91;12204879;19;20013;-85
2022/07/26 17:51:00;;;;;;;5.22;1.80;;;;;;;26.53;35.55;99593.41;12209021;19;20039;-84
2022/07/26 17:55:04;;;;;;;3.47;2.00;;;;;;;26.26;36.42;99595.88;12195547;19;20013;-85
2022/07/26 17:59:11;;;;;;;3.83;1.60;;;;;;;26.18;36.14;99601.69;12209678;19;20010;-86
2022/07/26 18:03:14;;;;;;;4.28;2.42;;;;;;;26.06;36.52;99608.22;12208380;19;20010;-84
2022/07/26 18:07:18;;;;;;;4.03;2.10;;;;;;;25.92;36.99;99597.31;12181042;19;20006;-84
2022/07/26 18:11:20;;;;;;;4.10;2.05;;;;;;;25.84;36.79;99610.38;12210517;19;20031;-84
2022/07/26 18:15:21;;;;;;;3.23;1.90;;;;;;;25.77;36.62;99612.16;12204898;19;20607;-84
2022/07/26 18:19:25;;;;;;;6.40;2.08;;;;;;;25.67;37.01;99607.81;12183485;19;20015;-84
2022/07/26 18:23:27;;;;;;;6.97;1.90;;;;;;;25.59;37.40;99617.25;12212710;19;20082;-84
2022/07/26 18:27:29;;;;;;;5.60;2.27;;;;;;;25.48;37.69;99616.91;12204053;19;20018;-86
2022/07/26 18:31:33;;;;;;;5.70;2.40;;;;;;;25.36;38.33;99629.03;12183898;19;20015;-83
2022/07/26 18:35:36;;;;;;;4.45;2.55;;;;;;;25.19;38.98;99626.44;12199852;19;20398;-84
2022/07/26 18:39:42;;;;;;;6.25;2.85;;;;;;;25.07;39.95;99626.41;12212769;19;20014;-86
2022/07/26 18:43:58;;;;;;;5.47;2.92;;;;;;;24.99;40.30;99631.00;12184323;19;20100;-83
2022/07/26 18:48:00;;;;;;;6.53;3.03;;;;;;;24.83;40.18;99632.84;12201136;19;20010;-84
2022/07/26 18:52:03;;;;;;;5.70;2.83;;;;;;;24.69;40.74;99628.38;12184621;19;20014;-85
2022/07/26 18:56:13;;;;;;;8.57;2.53;;;;;;;24.53;41.30;99636.63;12212341;19;20085;-84
2022/07/26 19:00:17;;;;;;;;;;;;;;;24.46;41.11;99629.94;12212065;19;20022;-84
2022/07/26 19:04:19;;;;;;;6.35;2.83;;;;;;;24.33;41.68;99634.66;12182380;19;20447;-85
2022/07/26 19:08:24;;;;;;;8.30;4.65;;;;;;;24.18;42.11;99647.38;12200770;19;20006;-86
2022/07/26 19:12:42;;;;;;;4.70;2.83;;;;;;;24.18;41.59;99652.19;12207277;19;20465;-87
2022/07/26 19:16:44;;;;;;;5.28;2.22;;;;;;;24.11;42.03;99653.56;12182340;19;20015;-86
2022/07/26 19:20:49;;;;;;;7.32;2.72;;;;;;;24.01;42.00;99654.00;12205884;19;20345;-85
2022/07/26 19:24:51;;;;;;;4.30;2.35;;;;;;;23.92;42.20;99664.50;12222060;19;20346;-84
2022/07/26 19:28:56;;;;;;;4.65;2.70;;;;;;;23.83;42.37;99663.75;12189953;19;20373;-87
2022/07/26 19:32:58;;;;;;;5.35;2.30;;;;;;;23.72;42.71;99670.94;12223291;19;20021;-85
2022/07/26 19:37:00;;;;;;;5.32;2.40;;;;;;;23.64;42.89;99673.44;12191878;19;20022;-86
2022/07/26 19:41:03;;;;;;;6.95;2.38;;;;;;;23.58;43.28;99685.22;12209927;19;20015;-85
2022/07/26 19:45:05;;;;;;;5.55;2.65;;;;;;;23.53;43.65;99691.88;12214485;19;20448;-85
2022/07/26 19:49:09;;;;;;;4.93;2.70;;;;;;;23.47;43.62;99704.50;12192189;19;20080;-85
2022/07/26 19:58:21;;;;;;;4.63;2.47;;;;;;;23.32;44.98;99714.31;12235779;19;20086;-87
2022/07/26 20:08:57;;;;;;;7.70;2.70;;;;;;;22.99;46.41;99722.53;12233921;19;20346;-88
2022/07/26 20:14:15;;;;;;;5.38;2.75;;;;;;;22.84;47.02;99729.47;12207438;19;20054;-88
2022/07/26 20:18:32;;;;;;;5.93;2.65;;;;;;;22.69;47.43;99716.78;12203832;19;20007;-87
2022/07/26 20:23:04;;;;;;;7.15;3.05;;;;;;;22.56;48.07;99720.59;12188154;19;20047;-86
2022/07/26 20:27:25;;;;;;;5.80;2.60;;;;;;;22.42;48.34;99723.59;12207397;19;20484;-87
2022/07/26 20:31:27;;;;;;;6.93;2.85;;;;;;;22.30;48.46;99731.84;12193014;19;20007;-86
2022/07/26 20:35:30;;;;;;;5.97;2.97;;;;;;;22.24;48.65;99731.19;12215462;19;20075;-85
2022/07/26 20:39:33;;;;;;;6.55;2.97;;;;;;;22.18;48.74;99743.72;12208849;19;20011;-86
2022/07/26 20:43:39;;;;;;;6.05;2.88;;;;;;;22.12;49.64;99742.22;12211918;19;20038;-86
2022/07/26 20:47:42;;;;;;;5.18;2.97;;;;;;;22.07;49.70;99745.16;12204512;19;20006;-87
2022/07/26 20:51:44;;;;;;;5.10;2.60;;;;;;;21.99;50.35;99746.00;12207092;19;20010;-87
2022/07/26 20:55:47;;;;;;;5.13;2.80;;;;;;;21.94;50.09;99752.59;12189535;19;20018;-86
2022/07/26 20:59:48;;;;;;;4.07;2.67;;;;;;;21.87;50.57;99749.44;12228148;19;20007;-87
2022/07/26 21:03:50;;;;;;;4.55;2.63;;;;;;;21.83;50.36;99754.88;12241465;19;20495;-87
2022/07/26 21:07:52;;;;;;;5.55;2.55;;;;;;;21.77;50.97;99750.59;12199399;19;20009;-86
2022/07/26 21:12:00;;;;;;;4.65;2.75;;;;;;;21.77;51.13;99760.94;12218345;19;20003;-86
2022/07/26 21:16:02;;;;;;;6.05;2.78;;;;;;;21.73;51.23;99769.19;12187288;19;20031;-86
2022/07/26 21:20:10;;;;;;;3.47;2.50;;;;;;;21.74;50.91;99768.03;12209506;19;20342;-87
2022/07/26 21:24:15;;;;;;;2.92;2.53;;;;;;;21.74;50.88;99765.22;12205942;19;20010;-87
2022/07/26 21:28:20;;;;;;;6.55;2.83;;;;;;;21.75;50.93;99766.91;12185698;19;20015;-87
2022/07/26 21:32:41;;;;;;;4.75;2.40;;;;;;;21.73;51.36;99768.38;12207395;19;20037;-87
2022/07/26 21:36:55;;;;;;;4.95;2.90;;;;;;;21.71;51.30;99770.66;12195654;19;20007;-88
2022/07/26 21:40:59;;;;;;;4.95;3.22;;;;;;;21.68;51.52;99765.72;12211594;19;20010;-87
2022/07/26 21:45:01;;;;;;;3.50;2.75;;;;;;;21.59;51.68;99776.91;12211014;19;20018;-87
2022/07/26 21:49:05;;;;;;;8.43;3.03;;;;;;;21.51;52.24;99772.94;12191507;19;20014;-83
2022/07/26 21:53:07;;;;;;;7.18;3.42;;;;;;;21.50;52.50;99776.84;12220007;19;20003;-88
2022/07/26 21:57:09;;;;;;;4.57;3.10;;;;;;;21.50;52.51;99788.06;12203715;19;20015;-87
2022/07/26 22:01:11;;;;;;;5.38;2.95;;;;;;;21.55;52.29;99789.91;12186298;19;20006;-87
2022/07/26 22:09:33;;;;;;;6.68;3.10;;;;;;;21.61;52.79;99788.63;12211743;19;20042;-86
2022/07/26 22:13:51;;;;;;;7.18;3.22;;;;;;;21.63;52.87;99789.13;12183302;19;20084;-85
2022/07/26 22:17:59;;;;;;;5.47;3.23;;;;;;;21.63;52.69;99789.13;12201971;19;20017;-86
2022/07/26 22:22:19;;;;;;;4.57;2.78;;;;;;;21.69;52.49;99787.00;12184766;19;20000;-87
2022/07/26 22:27:26;;;;;;;4.30;2.83;;;;;;;21.66;52.84;99791.28;12203552;19;20017;-88
2022/07/26 22:31:51;;;;;;;5.63;2.80;;;;;;;21.63;52.87;99791.94;12178382;19;20015;-85
2022/07/26 22:36:12;;;;;;;4.20;3.17;;;;;;;21.56;53.41;99794.38;12202462;19;20018;-88
2022/07/26 22:50:04;;;;;;;3.72;2.65;;;;;;;21.26;54.43;99773.59;12177972;19;20027;-87
2022/07/26 22:54:23;;;;;;;3.45;2.92;;;;;;;;;;12229455;19;20086;-87
2022/07/26 22:58:50;;;;;;;5.07;2.72;;;;;;;21.01;55.23;99783.53;12176575;19;20018;-86
2022/07/26 23:02:57;;;;;;;5.90;2.90;;;;;;;20.91;56.15;99771.44;12171181;19;20033;-88
2022/07/26 23:07:29;;;;;;;4.03;2.75;;;;;;;20.76;56.88;99774.59;12180473;19;20386;-86
2022/07/26 23:11:36;;;;;;;4.15;2.90;;;;;;;20.67;58.10;99777.38;12199615;19;20010;-87
2022/07/26 23:15:40;;;;;;;;;;;;;;;20.64;57.37;99777.16;12198505;19;20007;-86
2022/07/26 23:23:52;;;;;;;3.40;2.38;;;;;;;20.44;57.58;99789.66;12210376;19;19911;-87
2022/07/26 23:28:12;;;;;;;5.85;2.88;;;;;;;20.33;58.70;99782.66;12178698;19;20052;-87
2022/07/26 23:32:36;;;;;;;6.75;2.83;;;;;;;20.19;59.71;99791.88;12203531;19;19999;-87
2022/07/26 23:36:38;;;;;;;4.07;2.22;;;;;;;20.10;60.19;99790.97;12201174;19;20560;-86
2022/07/26 23:40:44;;;;;;;4.57;2.40;;;;;;;20.08;60.22;99786.84;12204338;19;20024;-87
2022/07/26 23:45:39;;;;;;;4.25;1.98;;;;;;;19.99;61.65;99790.41;12097871;19;2004400;-88
2022/07/26 23:50:12;;;;;;;4.43;2.00;;;;;;;19.89;62.40;99795.38;12184431;19;20003;-88
2022/07/26 23:59:05;;;;;;;2.20;1.90;;;;;;;19.71;62.34;99795.16;12197450;19;20515;-87
